createdAt,value
2023-05-10T00:04:37.486Z,98323.72
2023-05-10T00:09:44.117Z,98317.72
2023-05-10T00:14:52.026Z,98315.06
2023-05-10T00:19:57.389Z,98309.56
2023-05-10T00:25:02.906Z,98308.47
2023-05-10T00:30:13.530Z,98303.53
2023-05-10T00:35:19.784Z,98302.47
2023-05-10T00:40:26.324Z,98289.91
2023-05-10T00:45:43.515Z,98295.47
2023-05-10T00:50:48.692Z,98298.75
2023-05-10T00:55:53.893Z,98295.97
2023-05-10T01:01:02.601Z,98286.13
2023-05-10T01:06:08.797Z,98280.31
2023-05-10T01:11:16.375Z,98277.72
2023-05-10T01:16:24.481Z,98274.13
2023-05-10T01:21:37.452Z,98279.00
2023-05-10T01:27:12.473Z,98274.13
2023-05-10T01:32:29.298Z,98276.03
2023-05-10T01:37:44.683Z,98278.38
2023-05-10T01:42:54.085Z,98271.78
2023-05-10T01:48:09.966Z,98267.88
2023-05-10T01:53:17.035Z,98270.19
2023-05-10T01:58:30.075Z,98269.28
2023-05-10T02:03:41.080Z,98265.66
2023-05-10T02:08:48.616Z,98275.41
2023-05-10T02:13:55.677Z,98278.25
2023-05-10T02:19:10.459Z,98265.25
2023-05-10T02:24:19.970Z,98269.03
2023-05-10T02:29:27.141Z,98259.94
2023-05-10T02:34:36.581Z,98264.94
2023-05-10T02:39:45.075Z,98270.28
2023-05-10T02:44:56.035Z,98271.53
2023-05-10T02:50:03.977Z,98262.16
2023-05-10T02:55:17.061Z,98280.47
2023-05-10T03:00:22.640Z,98271.22
2023-05-10T03:05:32.356Z,98265.28
2023-05-10T03:10:51.974Z,98260.09
2023-05-10T03:16:02.638Z,98261.50
2023-05-10T03:21:14.309Z,98263.25
2023-05-10T03:26:27.854Z,98265.91
2023-05-10T03:31:40.649Z,98264.78
2023-05-10T03:36:48.764Z,98270.56
2023-05-10T03:41:57.690Z,98271.34
2023-05-10T03:47:04.516Z,98267.59
2023-05-10T03:52:13.595Z,98270.25
2023-05-10T03:57:22.590Z,98266.19
2023-05-10T04:02:29.463Z,98268.41
2023-05-10T04:07:37.838Z,98265.91
2023-05-10T04:12:42.983Z,98274.81
2023-05-10T04:17:48.296Z,98266.81
2023-05-10T04:22:56.210Z,98283.28
2023-05-10T04:28:01.206Z,98263.97
2023-05-10T04:33:06.320Z,98270.53
2023-05-10T04:38:15.300Z,98274.50
2023-05-10T04:43:20.342Z,98264.66
2023-05-10T04:48:25.302Z,98267.31
2023-05-10T04:53:34.143Z,98262.97
2023-05-10T04:58:39.362Z,98259.50
2023-05-10T05:03:55.694Z,98257.78
2023-05-10T05:09:03.699Z,98255.03
2023-05-10T05:14:09.087Z,98254.78
2023-05-10T05:19:14.139Z,98257.94
2023-05-10T05:24:22.197Z,98251.44
2023-05-10T05:29:29.033Z,98249.38
2023-05-10T05:34:34.492Z,98249.03
2023-05-10T05:39:43.620Z,98256.41
2023-05-10T05:44:49.838Z,98248.44
2023-05-10T05:49:55.112Z,98243.66
2023-05-10T05:55:05.848Z,98243.34
2023-05-10T06:00:13.980Z,98236.66
2023-05-10T06:05:19.305Z,98230.47
2023-05-10T06:10:28.053Z,98244.25
2023-05-10T06:15:33.784Z,98245.97
2023-05-10T06:20:41.640Z,98244.84
2023-05-10T06:25:49.904Z,98236.97
2023-05-10T06:30:56.352Z,98248.66
2023-05-10T06:36:05.216Z,98254.09
2023-05-10T06:41:16.168Z,98259.50
2023-05-10T06:46:21.500Z,98250.63
2023-05-10T06:51:27.503Z,98253.69
2023-05-10T06:56:35.448Z,98248.69
2023-05-10T07:01:40.515Z,98258.44
2023-05-10T07:06:50.484Z,98252.59
2023-05-10T07:12:00.210Z,98255.75
2023-05-10T07:17:05.373Z,98248.03
2023-05-10T07:22:10.416Z,98244.41
2023-05-10T07:27:18.055Z,98245.81
2023-05-10T07:32:23.535Z,98248.59
2023-05-10T07:37:29.061Z,98252.25
2023-05-10T07:42:36.716Z,98244.47
2023-05-10T07:47:41.938Z,98251.59
2023-05-10T07:52:47.159Z,98253.97
2023-05-10T07:57:54.968Z,98257.56
2023-05-10T08:03:01.210Z,98251.28
2023-05-10T08:08:10.793Z,98246.25
2023-05-10T08:13:19.398Z,98249.56
2023-05-10T08:18:25.114Z,98255.91
2023-05-10T08:23:31.955Z,98245.50
2023-05-10T08:28:43.807Z,98257.81
2023-05-10T08:33:52.701Z,98256.19
2023-05-10T08:38:58.480Z,98265.59
2023-05-10T08:44:08.409Z,98267.34
2023-05-10T08:49:16.768Z,98264.13
2023-05-10T08:54:22.370Z,98282.88
2023-05-10T08:59:30.746Z,98292.16
2023-05-10T09:04:36.730Z,98281.75
2023-05-10T09:09:42.273Z,98288.59
2023-05-10T09:14:52.371Z,98291.59
2023-05-10T09:20:02.347Z,98305.88
2023-05-10T09:25:12.175Z,98290.69
2023-05-10T09:30:28.744Z,98300.16
2023-05-10T09:35:39.581Z,98289.69
2023-05-10T09:40:59.248Z,98297.53
2023-05-10T09:46:15.187Z,98307.97
2023-05-10T09:51:23.745Z,98309.44
2023-05-10T09:56:43.540Z,98305.06
2023-05-10T10:01:59.572Z,98307.09
2023-05-10T10:07:06.913Z,98298.53
2023-05-10T10:12:12.294Z,98300.00
2023-05-10T10:17:20.336Z,98299.59
2023-05-10T10:22:26.181Z,98302.38
2023-05-10T10:27:41.901Z,98297.06
2023-05-10T10:33:24.309Z,98293.00
2023-05-10T10:38:41.978Z,98293.94
2023-05-10T10:43:49.708Z,98289.34
2023-05-10T10:49:16.170Z,98298.31
2023-05-10T10:54:32.197Z,98291.25
2023-05-10T10:59:40.694Z,98297.47
2023-05-10T11:04:53.397Z,98294.50
2023-05-10T11:09:58.696Z,98281.59
2023-05-10T11:15:06.105Z,98305.56
2023-05-10T11:20:26.312Z,98282.78
2023-05-10T11:25:37.032Z,98289.00
2023-05-10T11:30:44.387Z,98295.03
2023-05-10T11:35:52.222Z,98303.19
2023-05-10T11:40:59.124Z,98300.31
2023-05-10T11:46:04.903Z,98305.09
2023-05-10T11:51:19.577Z,98300.72
2023-05-10T11:56:24.937Z,98307.66
2023-05-10T12:01:32.273Z,98302.50
2023-05-10T12:06:49.013Z,98305.34
2023-05-10T12:12:06.064Z,98306.97
2023-05-10T12:17:16.151Z,98312.75
2023-05-10T12:22:30.158Z,98307.34
2023-05-10T12:27:38.768Z,98322.00
2023-05-10T12:32:46.437Z,98311.03
2023-05-10T12:37:58.175Z,98310.75
2023-05-10T12:43:21.472Z,98305.75
2023-05-10T12:48:35.171Z,98312.38
2023-05-10T12:53:49.340Z,98318.94
2023-05-10T12:58:56.969Z,98309.66
2023-05-10T13:04:02.036Z,98319.28
2023-05-10T13:09:12.546Z,98308.09
2023-05-10T13:14:17.665Z,98321.69
2023-05-10T13:19:22.833Z,98320.47
2023-05-10T13:24:32.828Z,98308.50
2023-05-10T13:29:38.051Z,98320.88
2023-05-10T13:34:44.375Z,98310.03
2023-05-10T13:39:53.372Z,98305.38
2023-05-10T13:44:58.462Z,98301.53
2023-05-10T13:50:05.101Z,98303.88
2023-05-10T13:55:13.556Z,98302.69
2023-05-10T14:00:28.426Z,98308.09
2023-05-10T14:05:36.730Z,98296.50
2023-05-10T14:10:45.547Z,98311.50
2023-05-10T14:15:50.808Z,98300.75
2023-05-10T14:20:56.610Z,98300.72
2023-05-10T14:26:04.308Z,98301.00
2023-05-10T14:31:10.584Z,98305.66
2023-05-10T14:36:19.230Z,98301.09
2023-05-10T14:41:27.589Z,98304.09
2023-05-10T14:46:42.965Z,98305.69
2023-05-10T14:51:50.514Z,98307.13
2023-05-10T14:57:02.367Z,98304.06
2023-05-10T15:02:09.432Z,98302.91
2023-05-10T15:07:19.492Z,98305.25
2023-05-10T15:12:29.499Z,98314.13
2023-05-10T15:17:34.769Z,98319.56
2023-05-10T15:22:40.170Z,98314.25
2023-05-10T15:27:48.218Z,98317.59
2023-05-10T15:32:54.727Z,98317.69
2023-05-10T15:37:59.996Z,98319.09
2023-05-10T15:43:09.020Z,98325.91
2023-05-10T15:48:14.260Z,98323.66
2023-05-10T15:53:20.543Z,98340.63
2023-05-10T15:58:31.024Z,98340.19
2023-05-10T16:03:38.141Z,98346.72
2023-05-10T16:08:43.460Z,98345.78
2023-05-10T16:13:53.970Z,98352.13
2023-05-10T16:19:01.507Z,98355.91
2023-05-10T16:24:08.380Z,98355.44
2023-05-10T16:29:18.070Z,98355.09
2023-05-10T16:34:25.469Z,98354.44
2023-05-10T16:39:31.165Z,98368.09
2023-05-10T16:44:40.517Z,98379.00
2023-05-10T16:49:48.907Z,98377.41
2023-05-10T16:54:54.579Z,98387.13
2023-05-10T17:00:05.418Z,98391.50
2023-05-10T17:05:11.106Z,98387.81
2023-05-10T17:10:16.357Z,98388.50
2023-05-10T17:15:26.496Z,98392.09
2023-05-10T17:20:31.620Z,98407.25
2023-05-10T17:25:38.595Z,98404.22
2023-05-10T17:30:46.825Z,98407.75
2023-05-10T17:35:52.139Z,98412.81
2023-05-10T17:40:57.224Z,98409.22
2023-05-10T17:46:05.224Z,98419.66
2023-05-10T17:51:11.503Z,98412.63
2023-05-10T17:56:16.959Z,98417.22
2023-05-10T18:01:25.606Z,98424.97
2023-05-10T18:06:31.095Z,98432.69
2023-05-10T18:11:40.080Z,98427.44
2023-05-10T18:16:48.166Z,98440.53
2023-05-10T18:21:54.851Z,98441.31
2023-05-10T18:27:04.113Z,98445.41
2023-05-10T18:32:12.416Z,98455.31
2023-05-10T18:37:18.314Z,98448.00
2023-05-10T18:42:24.681Z,98465.81
2023-05-10T18:47:32.825Z,98457.72
2023-05-10T18:52:39.029Z,98462.19
2023-05-10T18:57:48.555Z,98473.09
2023-05-10T19:02:57.126Z,98477.59
2023-05-10T19:08:06.266Z,98480.13
2023-05-10T19:13:11.912Z,98475.41
2023-05-10T19:18:23.625Z,98485.28
2023-05-10T19:23:29.274Z,98493.81
2023-05-10T19:28:36.588Z,98493.63
2023-05-10T19:33:45.607Z,98490.88
2023-05-10T19:38:52.443Z,98496.59
2023-05-10T19:43:58.450Z,98489.38
2023-05-10T19:49:07.338Z,98500.31
2023-05-10T19:54:13.090Z,98491.84
2023-05-10T19:59:19.795Z,98499.56
2023-05-10T20:04:31.655Z,98510.78
2023-05-10T20:09:37.731Z,98504.91
2023-05-10T20:14:42.932Z,98508.13
2023-05-10T20:19:50.891Z,98511.47
2023-05-10T20:24:56.382Z,98508.63
2023-05-10T20:30:01.480Z,98510.41
2023-05-10T20:35:10.204Z,98522.44
2023-05-10T20:40:16.338Z,98516.84
2023-05-10T20:45:22.080Z,98516.34
2023-05-10T20:50:30.149Z,98520.69
2023-05-10T20:55:35.185Z,98522.97
2023-05-10T21:00:40.423Z,98513.47
2023-05-10T21:05:48.235Z,98523.25
2023-05-10T21:10:53.392Z,98511.78
2023-05-10T21:15:58.454Z,98511.31
2023-05-10T21:21:06.348Z,98518.47
2023-05-10T21:26:11.413Z,98515.84
2023-05-10T21:31:17.178Z,98517.22
2023-05-10T21:36:24.946Z,98516.66
2023-05-10T21:41:31.322Z,98520.81
2023-05-10T21:46:36.372Z,98513.63
2023-05-10T21:51:44.325Z,98517.41
2023-05-10T21:56:49.505Z,98520.66
2023-05-10T22:01:54.647Z,98521.56
2023-05-10T22:07:03.925Z,98521.09
2023-05-10T22:12:09.430Z,98521.47
2023-05-10T22:17:14.638Z,98527.94
2023-05-10T22:22:22.735Z,98525.03
2023-05-10T22:27:27.921Z,98528.66
2023-05-10T22:32:34.298Z,98522.34
2023-05-10T22:37:41.993Z,98534.34
2023-05-10T22:42:47.097Z,98525.22
2023-05-10T22:47:52.575Z,98534.31
2023-05-10T22:53:00.327Z,98527.75
2023-05-10T22:58:05.983Z,98526.13
2023-05-10T23:03:11.296Z,98528.06
2023-05-10T23:08:20.126Z,98534.66
2023-05-10T23:13:25.187Z,98531.78
2023-05-10T23:18:30.183Z,98537.88
2023-05-10T23:23:37.864Z,98539.72
2023-05-10T23:28:43.282Z,98543.59
2023-05-10T23:33:48.449Z,98539.94
2023-05-10T23:38:56.193Z,98548.88
2023-05-10T23:44:01.680Z,98539.94
2023-05-10T23:49:06.770Z,98541.94
2023-05-10T23:54:14.380Z,98538.84
2023-05-10T23:59:19.471Z,98534.16
